Key West, Iowa
Current Conditions -  °F | °C
As of 8:53 AM on Sunday 21 Dec 2014 (Local Time) from KDBQ Reporting Station
Haze Haze  
Wind Chill: 23°   Ceiling: 700
Heat Index: 34°   Visibility: 2.5mi
Dew Point: 32°   Wind: 17mph
Humidity: 92%   Direction: 170°S
Pressure: 30.06"   Gusts: NA
Location:  42.549°N, 90.6988°W
Report Text: KDBQ 211453Z 17015KT 2 1/2SM BR BKN007 OVC021 01/00 A3006 RMK AO2 CIG 005V010 SLP190 T00110000 57009
Loading
Personal Weather Stations






























Interactive Weather Map New forecast layout! Learn more

10-Day Weather Forecast

Advertisements
Track Severe Weather on mobile